sensor_id;sensor_type;location;lat;lon;timestamp;P1;durP1;ratioP1;P2;durP2;ratioP2
11847;SDS011;5983;49.966;8.052;2022-11-20T00:00:22;15.47;;;11.03;;
11847;SDS011;5983;49.966;8.052;2022-11-20T00:02:49;16.43;;;10.63;;
11847;SDS011;5983;49.966;8.052;2022-11-20T00:05:16;17.97;;;11.20;;
11847;SDS011;5983;49.966;8.052;2022-11-20T00:07:44;16.00;;;9.87;;
11847;SDS011;5983;49.966;8.052;2022-11-20T00:10:11;20.27;;;11.57;;
11847;SDS011;5983;49.966;8.052;2022-11-20T00:12:38;18.53;;;11.43;;
11847;SDS011;5983;49.966;8.052;2022-11-20T00:15:06;16.27;;;11.00;;
11847;SDS011;5983;49.966;8.052;2022-11-20T00:17:35;17.43;;;11.73;;
11847;SDS011;5983;49.966;8.052;2022-11-20T00:20:02;18.93;;;10.67;;
11847;SDS011;5983;49.966;8.052;2022-11-20T00:22:29;16.63;;;11.53;;
11847;SDS011;5983;49.966;8.052;2022-11-20T00:24:58;17.17;;;11.00;;
11847;SDS011;5983;49.966;8.052;2022-11-20T00:27:25;16.60;;;10.37;;
11847;SDS011;5983;49.966;8.052;2022-11-20T00:29:52;17.30;;;11.10;;
11847;SDS011;5983;49.966;8.052;2022-11-20T00:32:19;17.27;;;10.60;;
11847;SDS011;5983;49.966;8.052;2022-11-20T00:34:46;20.13;;;11.77;;
11847;SDS011;5983;49.966;8.052;2022-11-20T00:37:13;17.27;;;10.77;;
11847;SDS011;5983;49.966;8.052;2022-11-20T00:39:40;17.13;;;11.27;;
11847;SDS011;5983;49.966;8.052;2022-11-20T00:42:08;17.70;;;10.73;;
11847;SDS011;5983;49.966;8.052;2022-11-20T00:44:35;17.37;;;11.47;;
11847;SDS011;5983;49.966;8.052;2022-11-20T00:47:02;17.27;;;10.97;;
11847;SDS011;5983;49.966;8.052;2022-11-20T00:49:29;20.10;;;11.77;;
11847;SDS011;5983;49.966;8.052;2022-11-20T00:51:55;18.67;;;11.63;;
11847;SDS011;5983;49.966;8.052;2022-11-20T00:54:23;17.53;;;10.90;;
11847;SDS011;5983;49.966;8.052;2022-11-20T00:56:52;16.20;;;11.30;;
11847;SDS011;5983;49.966;8.052;2022-11-20T00:59:20;16.90;;;11.30;;
11847;SDS011;5983;49.966;8.052;2022-11-20T01:01:47;18.43;;;11.40;;
11847;SDS011;5983;49.966;8.052;2022-11-20T01:04:14;18.13;;;11.70;;
11847;SDS011;5983;49.966;8.052;2022-11-20T01:06:41;20.13;;;12.13;;
11847;SDS011;5983;49.966;8.052;2022-11-20T01:09:09;17.13;;;11.57;;
11847;SDS011;5983;49.966;8.052;2022-11-20T01:11:39;17.73;;;12.37;;
11847;SDS011;5983;49.966;8.052;2022-11-20T01:14:09;17.43;;;11.83;;
11847;SDS011;5983;49.966;8.052;2022-11-20T01:16:41;18.53;;;11.10;;
11847;SDS011;5983;49.966;8.052;2022-11-20T01:19:11;18.07;;;11.80;;
11847;SDS011;5983;49.966;8.052;2022-11-20T01:21:42;20.37;;;12.37;;
11847;SDS011;5983;49.966;8.052;2022-11-20T01:24:11;20.63;;;12.30;;
11847;SDS011;5983;49.966;8.052;2022-11-20T01:26:43;17.07;;;11.03;;
11847;SDS011;5983;49.966;8.052;2022-11-20T01:29:12;16.47;;;11.57;;
11847;SDS011;5983;49.966;8.052;2022-11-20T01:31:44;20.87;;;12.73;;
11847;SDS011;5983;49.966;8.052;2022-11-20T01:34:12;17.33;;;11.87;;
11847;SDS011;5983;49.966;8.052;2022-11-20T01:36:41;16.63;;;11.93;;
11847;SDS011;5983;49.966;8.052;2022-11-20T01:39:10;17.53;;;11.43;;
11847;SDS011;5983;49.966;8.052;2022-11-20T01:41:40;15.97;;;10.80;;
11847;SDS011;5983;49.966;8.052;2022-11-20T01:47:19;20.70;;;12.93;;
11847;SDS011;5983;49.966;8.052;2022-11-20T01:49:54;16.87;;;10.90;;
11847;SDS011;5983;49.966;8.052;2022-11-20T01:52:28;17.50;;;11.83;;
11847;SDS011;5983;49.966;8.052;2022-11-20T01:55:01;16.77;;;11.77;;
11847;SDS011;5983;49.966;8.052;2022-11-20T01:57:33;19.37;;;11.60;;
11847;SDS011;5983;49.966;8.052;2022-11-20T02:00:03;18.50;;;12.67;;
11847;SDS011;5983;49.966;8.052;2022-11-20T02:02:35;18.47;;;11.47;;
11847;SDS011;5983;49.966;8.052;2022-11-20T02:05:09;20.63;;;12.80;;
11847;SDS011;5983;49.966;8.052;2022-11-20T02:07:46;18.33;;;11.97;;
11847;SDS011;5983;49.966;8.052;2022-11-20T02:10:14;17.93;;;10.87;;
11847;SDS011;5983;49.966;8.052;2022-11-20T02:12:42;19.03;;;12.37;;
11847;SDS011;5983;49.966;8.052;2022-11-20T02:15:26;17.60;;;11.70;;
11847;SDS011;5983;49.966;8.052;2022-11-20T02:17:55;19.57;;;12.47;;
11847;SDS011;5983;49.966;8.052;2022-11-20T02:20:22;18.93;;;11.57;;
11847;SDS011;5983;49.966;8.052;2022-11-20T02:22:50;17.87;;;11.03;;
11847;SDS011;5983;49.966;8.052;2022-11-20T02:25:27;17.77;;;11.67;;
11847;SDS011;5983;49.966;8.052;2022-11-20T02:27:57;19.40;;;12.70;;
11847;SDS011;5983;49.966;8.052;2022-11-20T02:30:24;19.13;;;12.27;;
11847;SDS011;5983;49.966;8.052;2022-11-20T02:32:51;18.97;;;11.77;;
11847;SDS011;5983;49.966;8.052;2022-11-20T02:38:11;16.17;;;10.57;;
11847;SDS011;5983;49.966;8.052;2022-11-20T02:40:41;16.93;;;12.03;;
11847;SDS011;5983;49.966;8.052;2022-11-20T02:43:09;18.13;;;11.63;;
11847;SDS011;5983;49.966;8.052;2022-11-20T02:45:37;20.47;;;12.13;;
11847;SDS011;5983;49.966;8.052;2022-11-20T02:48:05;18.30;;;11.67;;
11847;SDS011;5983;49.966;8.052;2022-11-20T02:50:35;19.47;;;12.10;;
11847;SDS011;5983;49.966;8.052;2022-11-20T02:53:05;21.07;;;11.60;;
11847;SDS011;5983;49.966;8.052;2022-11-20T02:55:32;20.57;;;12.97;;
11847;SDS011;5983;49.966;8.052;2022-11-20T02:58:01;18.00;;;11.83;;
11847;SDS011;5983;49.966;8.052;2022-11-20T03:00:28;21.03;;;12.93;;
11847;SDS011;5983;49.966;8.052;2022-11-20T03:02:55;16.97;;;11.23;;
11847;SDS011;5983;49.966;8.052;2022-11-20T03:05:22;17.00;;;11.73;;
11847;SDS011;5983;49.966;8.052;2022-11-20T03:07:49;18.47;;;12.63;;
11847;SDS011;5983;49.966;8.052;2022-11-20T03:10:16;18.03;;;12.67;;
11847;SDS011;5983;49.966;8.052;2022-11-20T03:12:43;19.60;;;12.03;;
11847;SDS011;5983;49.966;8.052;2022-11-20T03:15:11;18.70;;;12.67;;
11847;SDS011;5983;49.966;8.052;2022-11-20T03:17:38;19.50;;;12.87;;
11847;SDS011;5983;49.966;8.052;2022-11-20T03:20:06;19.47;;;12.83;;
11847;SDS011;5983;49.966;8.052;2022-11-20T03:22:34;20.47;;;12.00;;
11847;SDS011;5983;49.966;8.052;2022-11-20T03:25:01;18.50;;;12.37;;
11847;SDS011;5983;49.966;8.052;2022-11-20T03:27:31;19.53;;;12.07;;
11847;SDS011;5983;49.966;8.052;2022-11-20T03:30:00;19.40;;;12.60;;
11847;SDS011;5983;49.966;8.052;2022-11-20T03:32:28;19.03;;;13.03;;
11847;SDS011;5983;49.966;8.052;2022-11-20T03:34:55;20.37;;;12.57;;
11847;SDS011;5983;49.966;8.052;2022-11-20T03:37:22;17.83;;;11.97;;
11847;SDS011;5983;49.966;8.052;2022-11-20T03:39:49;20.33;;;12.43;;
11847;SDS011;5983;49.966;8.052;2022-11-20T03:42:16;19.00;;;12.23;;
11847;SDS011;5983;49.966;8.052;2022-11-20T03:45:01;17.97;;;12.00;;
11847;SDS011;5983;49.966;8.052;2022-11-20T03:47:29;20.97;;;13.57;;
11847;SDS011;5983;49.966;8.052;2022-11-20T03:49:56;21.23;;;13.77;;
11847;SDS011;5983;49.966;8.052;2022-11-20T03:52:23;20.17;;;12.53;;
11847;SDS011;5983;49.966;8.052;2022-11-20T03:54:50;20.00;;;12.73;;
11847;SDS011;5983;49.966;8.052;2022-11-20T03:57:17;21.10;;;13.27;;
11847;SDS011;5983;49.966;8.052;2022-11-20T03:59:44;19.47;;;12.23;;
11847;SDS011;5983;49.966;8.052;2022-11-20T04:02:11;21.57;;;13.37;;
11847;SDS011;5983;49.966;8.052;2022-11-20T04:04:39;21.43;;;13.67;;
11847;SDS011;5983;49.966;8.052;2022-11-20T04:07:06;24.63;;;15.37;;
11847;SDS011;5983;49.966;8.052;2022-11-20T04:09:33;23.23;;;13.87;;
11847;SDS011;5983;49.966;8.052;2022-11-20T04:12:00;22.83;;;13.37;;
11847;SDS011;5983;49.966;8.052;2022-11-20T04:14:27;21.53;;;13.03;;
11847;SDS011;5983;49.966;8.052;2022-11-20T04:16:54;21.00;;;12.83;;
11847;SDS011;5983;49.966;8.052;2022-11-20T04:19:21;22.00;;;13.70;;
11847;SDS011;5983;49.966;8.052;2022-11-20T04:21:49;21.17;;;12.87;;
11847;SDS011;5983;49.966;8.052;2022-11-20T04:24:16;20.03;;;12.90;;
11847;SDS011;5983;49.966;8.052;2022-11-20T04:26:43;23.47;;;14.33;;
11847;SDS011;5983;49.966;8.052;2022-11-20T04:29:10;21.83;;;13.70;;
11847;SDS011;5983;49.966;8.052;2022-11-20T04:31:38;20.77;;;12.50;;
11847;SDS011;5983;49.966;8.052;2022-11-20T04:34:06;22.30;;;13.40;;
11847;SDS011;5983;49.966;8.052;2022-11-20T04:36:33;21.33;;;13.53;;
11847;SDS011;5983;49.966;8.052;2022-11-20T04:39:03;20.97;;;12.87;;
11847;SDS011;5983;49.966;8.052;2022-11-20T04:41:33;22.53;;;13.57;;
11847;SDS011;5983;49.966;8.052;2022-11-20T04:44:03;21.27;;;12.90;;
11847;SDS011;5983;49.966;8.052;2022-11-20T04:46:32;18.87;;;13.30;;
11847;SDS011;5983;49.966;8.052;2022-11-20T04:49:02;20.60;;;13.60;;
11847;SDS011;5983;49.966;8.052;2022-11-20T04:51:29;20.83;;;12.77;;
11847;SDS011;5983;49.966;8.052;2022-11-20T04:53:56;22.53;;;13.77;;
11847;SDS011;5983;49.966;8.052;2022-11-20T04:56:25;21.10;;;13.00;;
11847;SDS011;5983;49.966;8.052;2022-11-20T04:58:52;21.63;;;13.90;;
11847;SDS011;5983;49.966;8.052;2022-11-20T05:01:19;22.30;;;13.80;;
11847;SDS011;5983;49.966;8.052;2022-11-20T05:03:49;22.83;;;13.63;;
11847;SDS011;5983;49.966;8.052;2022-11-20T05:06:17;24.33;;;13.10;;
11847;SDS011;5983;49.966;8.052;2022-11-20T05:08:48;21.50;;;13.23;;
11847;SDS011;5983;49.966;8.052;2022-11-20T05:11:16;25.03;;;14.27;;
11847;SDS011;5983;49.966;8.052;2022-11-20T05:13:47;22.30;;;14.30;;
11847;SDS011;5983;49.966;8.052;2022-11-20T05:16:15;22.27;;;13.07;;
11847;SDS011;5983;49.966;8.052;2022-11-20T05:18:44;23.33;;;14.27;;
11847;SDS011;5983;49.966;8.052;2022-11-20T05:21:12;24.63;;;14.47;;
11847;SDS011;5983;49.966;8.052;2022-11-20T05:23:40;20.37;;;12.87;;
11847;SDS011;5983;49.966;8.052;2022-11-20T05:26:12;24.87;;;14.40;;
11847;SDS011;5983;49.966;8.052;2022-11-20T05:28:42;21.77;;;13.27;;
11847;SDS011;5983;49.966;8.052;2022-11-20T05:31:11;23.63;;;14.67;;
11847;SDS011;5983;49.966;8.052;2022-11-20T05:33:40;25.53;;;14.73;;
11847;SDS011;5983;49.966;8.052;2022-11-20T05:36:09;21.00;;;13.27;;
11847;SDS011;5983;49.966;8.052;2022-11-20T05:38:37;24.90;;;14.43;;
11847;SDS011;5983;49.966;8.052;2022-11-20T05:41:05;26.87;;;15.80;;
11847;SDS011;5983;49.966;8.052;2022-11-20T05:43:34;26.73;;;15.37;;
11847;SDS011;5983;49.966;8.052;2022-11-20T05:46:02;32.00;;;16.07;;
11847;SDS011;5983;49.966;8.052;2022-11-20T05:48:33;26.73;;;15.67;;
11847;SDS011;5983;49.966;8.052;2022-11-20T05:51:02;27.67;;;14.87;;
11847;SDS011;5983;49.966;8.052;2022-11-20T05:53:32;25.27;;;15.40;;
11847;SDS011;5983;49.966;8.052;2022-11-20T05:56:00;21.93;;;14.43;;
11847;SDS011;5983;49.966;8.052;2022-11-20T05:58:30;23.33;;;14.20;;
11847;SDS011;5983;49.966;8.052;2022-11-20T06:01:02;22.80;;;13.37;;
11847;SDS011;5983;49.966;8.052;2022-11-20T06:03:33;24.80;;;14.47;;
11847;SDS011;5983;49.966;8.052;2022-11-20T06:06:00;23.17;;;14.27;;
11847;SDS011;5983;49.966;8.052;2022-11-20T06:08:28;25.57;;;14.67;;
11847;SDS011;5983;49.966;8.052;2022-11-20T06:10:56;23.50;;;14.17;;
11847;SDS011;5983;49.966;8.052;2022-11-20T06:13:23;24.77;;;15.50;;
11847;SDS011;5983;49.966;8.052;2022-11-20T06:15:50;21.83;;;14.53;;
11847;SDS011;5983;49.966;8.052;2022-11-20T06:18:20;24.53;;;14.50;;
11847;SDS011;5983;49.966;8.052;2022-11-20T06:20:48;31.00;;;16.43;;
11847;SDS011;5983;49.966;8.052;2022-11-20T06:23:15;25.17;;;15.60;;
11847;SDS011;5983;49.966;8.052;2022-11-20T06:25:42;25.77;;;15.67;;
11847;SDS011;5983;49.966;8.052;2022-11-20T06:28:09;28.40;;;14.87;;
11847;SDS011;5983;49.966;8.052;2022-11-20T06:30:36;23.03;;;14.23;;
11847;SDS011;5983;49.966;8.052;2022-11-20T06:33:10;23.93;;;13.97;;
11847;SDS011;5983;49.966;8.052;2022-11-20T06:35:37;27.73;;;15.57;;
11847;SDS011;5983;49.966;8.052;2022-11-20T06:38:05;22.60;;;14.00;;
11847;SDS011;5983;49.966;8.052;2022-11-20T06:40:32;26.17;;;14.40;;
11847;SDS011;5983;49.966;8.052;2022-11-20T06:42:59;22.50;;;14.10;;
11847;SDS011;5983;49.966;8.052;2022-11-20T06:45:26;23.87;;;13.70;;
11847;SDS011;5983;49.966;8.052;2022-11-20T06:47:53;26.93;;;14.90;;
11847;SDS011;5983;49.966;8.052;2022-11-20T06:50:23;26.43;;;15.67;;
11847;SDS011;5983;49.966;8.052;2022-11-20T06:52:50;27.40;;;14.27;;
11847;SDS011;5983;49.966;8.052;2022-11-20T06:55:19;23.17;;;13.57;;
11847;SDS011;5983;49.966;8.052;2022-11-20T06:57:46;24.30;;;14.07;;
11847;SDS011;5983;49.966;8.052;2022-11-20T07:00:13;22.23;;;13.97;;
11847;SDS011;5983;49.966;8.052;2022-11-20T07:02:41;21.30;;;13.37;;
11847;SDS011;5983;49.966;8.052;2022-11-20T07:05:08;25.33;;;14.97;;
11847;SDS011;5983;49.966;8.052;2022-11-20T07:07:35;23.07;;;13.43;;
11847;SDS011;5983;49.966;8.052;2022-11-20T07:10:02;23.20;;;14.07;;
11847;SDS011;5983;49.966;8.052;2022-11-20T07:12:31;24.13;;;14.70;;
11847;SDS011;5983;49.966;8.052;2022-11-20T07:14:58;24.57;;;14.60;;
11847;SDS011;5983;49.966;8.052;2022-11-20T07:17:25;25.87;;;14.87;;
11847;SDS011;5983;49.966;8.052;2022-11-20T07:19:52;25.53;;;14.57;;
11847;SDS011;5983;49.966;8.052;2022-11-20T07:22:19;23.10;;;13.93;;
11847;SDS011;5983;49.966;8.052;2022-11-20T07:24:46;21.43;;;13.77;;
11847;SDS011;5983;49.966;8.052;2022-11-20T07:27:13;27.03;;;14.67;;
11847;SDS011;5983;49.966;8.052;2022-11-20T07:29:42;23.57;;;14.80;;
11847;SDS011;5983;49.966;8.052;2022-11-20T07:32:09;21.33;;;13.77;;
11847;SDS011;5983;49.966;8.052;2022-11-20T07:34:36;23.77;;;13.77;;
11847;SDS011;5983;49.966;8.052;2022-11-20T07:37:03;25.97;;;14.70;;
11847;SDS011;5983;49.966;8.052;2022-11-20T07:39:30;30.30;;;15.10;;
11847;SDS011;5983;49.966;8.052;2022-11-20T07:41:57;24.07;;;14.67;;
11847;SDS011;5983;49.966;8.052;2022-11-20T07:44:24;26.87;;;14.70;;
11847;SDS011;5983;49.966;8.052;2022-11-20T07:46:52;27.67;;;15.90;;
11847;SDS011;5983;49.966;8.052;2022-11-20T07:49:19;24.63;;;14.40;;
11847;SDS011;5983;49.966;8.052;2022-11-20T07:51:46;26.50;;;14.70;;
11847;SDS011;5983;49.966;8.052;2022-11-20T07:54:27;24.10;;;14.90;;
11847;SDS011;5983;49.966;8.052;2022-11-20T07:56:54;25.57;;;13.97;;
11847;SDS011;5983;49.966;8.052;2022-11-20T07:59:21;22.93;;;14.43;;
11847;SDS011;5983;49.966;8.052;2022-11-20T08:01:48;22.47;;;13.87;;
11847;SDS011;5983;49.966;8.052;2022-11-20T08:04:16;23.20;;;13.73;;
11847;SDS011;5983;49.966;8.052;2022-11-20T08:06:43;26.43;;;14.33;;
11847;SDS011;5983;49.966;8.052;2022-11-20T08:09:10;22.90;;;14.33;;
11847;SDS011;5983;49.966;8.052;2022-11-20T08:11:37;22.40;;;13.50;;
11847;SDS011;5983;49.966;8.052;2022-11-20T08:14:22;22.93;;;13.07;;
11847;SDS011;5983;49.966;8.052;2022-11-20T08:16:49;30.67;;;17.00;;
11847;SDS011;5983;49.966;8.052;2022-11-20T08:19:17;55.53;;;30.00;;
11847;SDS011;5983;49.966;8.052;2022-11-20T08:21:45;38.00;;;21.87;;
11847;SDS011;5983;49.966;8.052;2022-11-20T08:24:12;31.23;;;18.03;;
11847;SDS011;5983;49.966;8.052;2022-11-20T08:26:39;28.13;;;16.17;;
11847;SDS011;5983;49.966;8.052;2022-11-20T08:29:06;21.53;;;13.60;;
11847;SDS011;5983;49.966;8.052;2022-11-20T08:31:34;24.43;;;14.17;;
11847;SDS011;5983;49.966;8.052;2022-11-20T08:34:01;24.93;;;13.97;;
11847;SDS011;5983;49.966;8.052;2022-11-20T08:36:32;22.83;;;14.50;;
11847;SDS011;5983;49.966;8.052;2022-11-20T08:38:59;20.77;;;13.47;;
11847;SDS011;5983;49.966;8.052;2022-11-20T08:41:27;22.47;;;14.33;;
11847;SDS011;5983;49.966;8.052;2022-11-20T08:43:58;22.20;;;14.13;;
11847;SDS011;5983;49.966;8.052;2022-11-20T08:46:28;24.23;;;14.73;;
11847;SDS011;5983;49.966;8.052;2022-11-20T08:48:59;27.70;;;16.40;;
11847;SDS011;5983;49.966;8.052;2022-11-20T08:51:26;25.83;;;14.23;;
11847;SDS011;5983;49.966;8.052;2022-11-20T08:53:54;25.30;;;14.60;;
11847;SDS011;5983;49.966;8.052;2022-11-20T08:56:21;23.10;;;14.13;;
11847;SDS011;5983;49.966;8.052;2022-11-20T08:58:49;20.70;;;13.73;;
11847;SDS011;5983;49.966;8.052;2022-11-20T09:01:17;26.37;;;14.67;;
11847;SDS011;5983;49.966;8.052;2022-11-20T09:03:45;24.20;;;13.60;;
11847;SDS011;5983;49.966;8.052;2022-11-20T09:06:12;22.57;;;13.67;;
11847;SDS011;5983;49.966;8.052;2022-11-20T09:08:40;24.47;;;14.50;;
11847;SDS011;5983;49.966;8.052;2022-11-20T09:11:08;22.27;;;13.97;;
11847;SDS011;5983;49.966;8.052;2022-11-20T09:13:36;25.57;;;15.23;;
11847;SDS011;5983;49.966;8.052;2022-11-20T09:16:04;23.97;;;14.23;;
11847;SDS011;5983;49.966;8.052;2022-11-20T09:18:35;25.17;;;15.37;;
11847;SDS011;5983;49.966;8.052;2022-11-20T09:21:04;25.07;;;14.93;;
11847;SDS011;5983;49.966;8.052;2022-11-20T09:23:35;24.63;;;14.40;;
11847;SDS011;5983;49.966;8.052;2022-11-20T09:26:04;25.37;;;14.93;;
11847;SDS011;5983;49.966;8.052;2022-11-20T09:28:33;24.87;;;14.93;;
11847;SDS011;5983;49.966;8.052;2022-11-20T09:31:04;22.63;;;13.87;;
11847;SDS011;5983;49.966;8.052;2022-11-20T09:33:31;24.97;;;15.27;;
11847;SDS011;5983;49.966;8.052;2022-11-20T09:35:59;24.97;;;15.20;;
11847;SDS011;5983;49.966;8.052;2022-11-20T09:38:26;21.13;;;13.20;;
11847;SDS011;5983;49.966;8.052;2022-11-20T09:40:55;24.70;;;13.83;;
11847;SDS011;5983;49.966;8.052;2022-11-20T09:43:29;28.00;;;16.40;;
11847;SDS011;5983;49.966;8.052;2022-11-20T09:46:17;27.47;;;16.37;;
11847;SDS011;5983;49.966;8.052;2022-11-20T09:51:51;27.37;;;15.47;;
11847;SDS011;5983;49.966;8.052;2022-11-20T09:54:26;25.70;;;14.60;;
11847;SDS011;5983;49.966;8.052;2022-11-20T09:56:59;25.73;;;14.53;;
11847;SDS011;5983;49.966;8.052;2022-11-20T09:59:32;22.20;;;14.10;;
11847;SDS011;5983;49.966;8.052;2022-11-20T10:02:11;23.47;;;14.17;;
11847;SDS011;5983;49.966;8.052;2022-11-20T10:04:48;21.03;;;13.60;;
11847;SDS011;5983;49.966;8.052;2022-11-20T10:07:22;20.37;;;13.37;;
11847;SDS011;5983;49.966;8.052;2022-11-20T10:09:56;21.17;;;13.47;;
11847;SDS011;5983;49.966;8.052;2022-11-20T10:12:26;22.43;;;13.43;;
11847;SDS011;5983;49.966;8.052;2022-11-20T10:15:23;25.43;;;14.70;;
11847;SDS011;5983;49.966;8.052;2022-11-20T10:18:11;21.63;;;12.93;;
11847;SDS011;5983;49.966;8.052;2022-11-20T10:20:55;21.57;;;12.23;;
11847;SDS011;5983;49.966;8.052;2022-11-20T10:23:41;20.47;;;12.50;;
11847;SDS011;5983;49.966;8.052;2022-11-20T10:28:07;21.40;;;13.00;;
11847;SDS011;5983;49.966;8.052;2022-11-20T10:30:26;19.33;;;12.33;;
11847;SDS011;5983;49.966;8.052;2022-11-20T10:32:58;22.40;;;13.37;;
11847;SDS011;5983;49.966;8.052;2022-11-20T10:35:35;21.30;;;13.23;;
11847;SDS011;5983;49.966;8.052;2022-11-20T10:38:12;20.70;;;13.50;;
11847;SDS011;5983;49.966;8.052;2022-11-20T10:40:48;21.20;;;13.07;;
11847;SDS011;5983;49.966;8.052;2022-11-20T10:43:40;18.70;;;12.27;;
11847;SDS011;5983;49.966;8.052;2022-11-20T10:46:10;21.37;;;12.53;;
11847;SDS011;5983;49.966;8.052;2022-11-20T10:48:43;20.90;;;13.30;;
11847;SDS011;5983;49.966;8.052;2022-11-20T10:51:13;20.50;;;12.43;;
11847;SDS011;5983;49.966;8.052;2022-11-20T10:53:58;19.20;;;12.93;;
11847;SDS011;5983;49.966;8.052;2022-11-20T10:56:44;19.37;;;12.47;;
11847;SDS011;5983;49.966;8.052;2022-11-20T10:59:30;18.07;;;11.67;;
11847;SDS011;5983;49.966;8.052;2022-11-20T11:02:18;17.53;;;11.97;;
11847;SDS011;5983;49.966;8.052;2022-11-20T11:04:47;16.40;;;10.23;;
11847;SDS011;5983;49.966;8.052;2022-11-20T11:07:17;17.93;;;11.93;;
11847;SDS011;5983;49.966;8.052;2022-11-20T11:09:50;16.67;;;10.97;;
11847;SDS011;5983;49.966;8.052;2022-11-20T11:12:20;16.90;;;11.00;;
11847;SDS011;5983;49.966;8.052;2022-11-20T11:14:51;17.87;;;11.60;;
11847;SDS011;5983;49.966;8.052;2022-11-20T11:17:23;16.87;;;11.43;;
11847;SDS011;5983;49.966;8.052;2022-11-20T11:20:00;17.93;;;11.67;;
11847;SDS011;5983;49.966;8.052;2022-11-20T11:22:33;17.37;;;11.57;;
11847;SDS011;5983;49.966;8.052;2022-11-20T11:25:11;19.37;;;11.90;;
11847;SDS011;5983;49.966;8.052;2022-11-20T11:27:53;17.80;;;11.37;;
11847;SDS011;5983;49.966;8.052;2022-11-20T11:30:25;17.10;;;11.07;;
11847;SDS011;5983;49.966;8.052;2022-11-20T11:33:06;16.83;;;11.33;;
11847;SDS011;5983;49.966;8.052;2022-11-20T11:35:39;17.03;;;10.87;;
11847;SDS011;5983;49.966;8.052;2022-11-20T11:38:13;18.00;;;11.00;;
11847;SDS011;5983;49.966;8.052;2022-11-20T11:40:45;15.77;;;10.63;;
11847;SDS011;5983;49.966;8.052;2022-11-20T11:43:17;19.43;;;11.27;;
11847;SDS011;5983;49.966;8.052;2022-11-20T11:46:06;15.60;;;9.77;;
11847;SDS011;5983;49.966;8.052;2022-11-20T11:48:58;16.90;;;10.23;;
11847;SDS011;5983;49.966;8.052;2022-11-20T11:51:34;15.57;;;9.73;;
11847;SDS011;5983;49.966;8.052;2022-11-20T11:54:14;15.97;;;10.00;;
11847;SDS011;5983;49.966;8.052;2022-11-20T11:56:50;15.33;;;9.33;;
11847;SDS011;5983;49.966;8.052;2022-11-20T11:59:22;17.43;;;9.67;;
11847;SDS011;5983;49.966;8.052;2022-11-20T12:02:01;14.93;;;9.70;;
11847;SDS011;5983;49.966;8.052;2022-11-20T12:04:54;17.77;;;10.83;;
11847;SDS011;5983;49.966;8.052;2022-11-20T12:07:32;14.80;;;10.27;;
11847;SDS011;5983;49.966;8.052;2022-11-20T12:10:13;14.23;;;9.47;;
11847;SDS011;5983;49.966;8.052;2022-11-20T12:12:48;13.67;;;9.07;;
11847;SDS011;5983;49.966;8.052;2022-11-20T12:15:24;12.80;;;8.50;;
11847;SDS011;5983;49.966;8.052;2022-11-20T12:18:01;12.17;;;8.40;;
11847;SDS011;5983;49.966;8.052;2022-11-20T12:24:06;12.60;;;9.47;;
11847;SDS011;5983;49.966;8.052;2022-11-20T12:27:00;13.40;;;9.57;;
11847;SDS011;5983;49.966;8.052;2022-11-20T12:29:48;13.60;;;9.17;;
11847;SDS011;5983;49.966;8.052;2022-11-20T12:32:37;12.37;;;8.37;;
11847;SDS011;5983;49.966;8.052;2022-11-20T12:35:50;11.83;;;8.63;;
11847;SDS011;5983;49.966;8.052;2022-11-20T12:42:45;12.63;;;8.57;;
11847;SDS011;5983;49.966;8.052;2022-11-20T12:49:20;11.93;;;8.10;;
11847;SDS011;5983;49.966;8.052;2022-11-20T12:52:04;11.77;;;8.33;;
11847;SDS011;5983;49.966;8.052;2022-11-20T12:55:03;12.10;;;7.43;;
11847;SDS011;5983;49.966;8.052;2022-11-20T12:57:50;13.87;;;9.40;;
11847;SDS011;5983;49.966;8.052;2022-11-20T13:00:32;12.03;;;7.67;;
11847;SDS011;5983;49.966;8.052;2022-11-20T13:03:21;13.03;;;8.13;;
11847;SDS011;5983;49.966;8.052;2022-11-20T13:09:10;11.40;;;7.73;;
11847;SDS011;5983;49.966;8.052;2022-11-20T13:11:50;11.43;;;8.40;;
11847;SDS011;5983;49.966;8.052;2022-11-20T13:14:32;11.93;;;8.53;;
11847;SDS011;5983;49.966;8.052;2022-11-20T13:17:05;10.10;;;7.67;;
11847;SDS011;5983;49.966;8.052;2022-11-20T13:19:38;12.00;;;7.30;;
11847;SDS011;5983;49.966;8.052;2022-11-20T13:22:07;11.43;;;7.80;;
11847;SDS011;5983;49.966;8.052;2022-11-20T13:24:35;11.30;;;7.80;;
11847;SDS011;5983;49.966;8.052;2022-11-20T13:27:05;10.10;;;6.80;;
11847;SDS011;5983;49.966;8.052;2022-11-20T13:29:46;10.83;;;7.03;;
11847;SDS011;5983;49.966;8.052;2022-11-20T13:32:27;12.50;;;8.00;;
11847;SDS011;5983;49.966;8.052;2022-11-20T13:34:57;11.90;;;8.20;;
11847;SDS011;5983;49.966;8.052;2022-11-20T13:37:28;10.67;;;7.70;;
11847;SDS011;5983;49.966;8.052;2022-11-20T13:40:05;11.93;;;7.70;;
11847;SDS011;5983;49.966;8.052;2022-11-20T13:42:43;14.97;;;8.73;;
11847;SDS011;5983;49.966;8.052;2022-11-20T13:45:20;13.43;;;9.73;;
11847;SDS011;5983;49.966;8.052;2022-11-20T13:47:53;15.90;;;10.70;;
11847;SDS011;5983;49.966;8.052;2022-11-20T13:50:24;15.73;;;10.40;;
11847;SDS011;5983;49.966;8.052;2022-11-20T13:53:12;14.60;;;10.97;;
11847;SDS011;5983;49.966;8.052;2022-11-20T13:56:00;15.63;;;10.73;;
11847;SDS011;5983;49.966;8.052;2022-11-20T13:58:43;14.10;;;9.50;;
11847;SDS011;5983;49.966;8.052;2022-11-20T14:01:24;15.40;;;10.63;;
11847;SDS011;5983;49.966;8.052;2022-11-20T14:03:56;18.17;;;11.73;;
11847;SDS011;5983;49.966;8.052;2022-11-20T14:06:26;16.37;;;11.00;;
11847;SDS011;5983;49.966;8.052;2022-11-20T14:08:58;16.03;;;11.17;;
11847;SDS011;5983;49.966;8.052;2022-11-20T14:11:26;16.50;;;10.87;;
11847;SDS011;5983;49.966;8.052;2022-11-20T14:13:58;14.00;;;9.93;;
11847;SDS011;5983;49.966;8.052;2022-11-20T14:16:30;16.00;;;11.37;;
11847;SDS011;5983;49.966;8.052;2022-11-20T14:19:17;16.27;;;10.73;;
11847;SDS011;5983;49.966;8.052;2022-11-20T14:22:06;15.07;;;10.37;;
11847;SDS011;5983;49.966;8.052;2022-11-20T14:24:48;16.63;;;11.20;;
11847;SDS011;5983;49.966;8.052;2022-11-20T14:27:32;17.23;;;11.10;;
11847;SDS011;5983;49.966;8.052;2022-11-20T14:30:11;15.37;;;10.70;;
11847;SDS011;5983;49.966;8.052;2022-11-20T14:32:43;17.37;;;11.77;;
11847;SDS011;5983;49.966;8.052;2022-11-20T14:35:13;17.33;;;11.43;;
11847;SDS011;5983;49.966;8.052;2022-11-20T14:37:49;16.83;;;11.00;;
11847;SDS011;5983;49.966;8.052;2022-11-20T14:40:25;16.43;;;10.93;;
11847;SDS011;5983;49.966;8.052;2022-11-20T14:42:58;22.37;;;12.53;;
11847;SDS011;5983;49.966;8.052;2022-11-20T14:45:27;19.60;;;12.27;;
11847;SDS011;5983;49.966;8.052;2022-11-20T14:47:58;19.47;;;12.53;;
11847;SDS011;5983;49.966;8.052;2022-11-20T14:50:28;20.87;;;12.63;;
11847;SDS011;5983;49.966;8.052;2022-11-20T14:52:56;20.87;;;13.13;;
11847;SDS011;5983;49.966;8.052;2022-11-20T14:55:29;20.43;;;12.70;;
11847;SDS011;5983;49.966;8.052;2022-11-20T14:58:01;17.50;;;11.50;;
11847;SDS011;5983;49.966;8.052;2022-11-20T15:00:34;15.87;;;11.63;;
11847;SDS011;5983;49.966;8.052;2022-11-20T15:03:02;17.17;;;11.50;;
11847;SDS011;5983;49.966;8.052;2022-11-20T15:05:45;19.03;;;11.53;;
11847;SDS011;5983;49.966;8.052;2022-11-20T15:08:15;19.27;;;12.07;;
11847;SDS011;5983;49.966;8.052;2022-11-20T15:10:47;18.70;;;12.67;;
11847;SDS011;5983;49.966;8.052;2022-11-20T15:13:20;19.83;;;11.73;;
11847;SDS011;5983;49.966;8.052;2022-11-20T15:15:57;19.23;;;12.00;;
11847;SDS011;5983;49.966;8.052;2022-11-20T15:18:27;17.20;;;11.30;;
11847;SDS011;5983;49.966;8.052;2022-11-20T15:20:58;17.07;;;11.33;;
11847;SDS011;5983;49.966;8.052;2022-11-20T15:23:33;17.83;;;10.43;;
11847;SDS011;5983;49.966;8.052;2022-11-20T15:26:01;16.60;;;11.47;;